sensor_id;sensor_type;location;lat;lon;timestamp;P1;durP1;ratioP1;P2;durP2;ratioP2
920;SDS011;447;51.332;6.778;2023-08-12T00:01:02;5.80;;;4.90;;
920;SDS011;447;51.332;6.778;2023-08-12T00:03:35;5.63;;;5.03;;
920;SDS011;447;51.332;6.778;2023-08-12T00:06:01;6.47;;;5.20;;
920;SDS011;447;51.332;6.778;2023-08-12T00:08:32;5.87;;;4.40;;
920;SDS011;447;51.332;6.778;2023-08-12T00:10:59;5.17;;;4.77;;
920;SDS011;447;51.332;6.778;2023-08-12T00:13:29;5.80;;;5.20;;
920;SDS011;447;51.332;6.778;2023-08-12T00:15:55;5.70;;;5.20;;
920;SDS011;447;51.332;6.778;2023-08-12T00:18:22;5.57;;;4.93;;
920;SDS011;447;51.332;6.778;2023-08-12T00:20:48;5.53;;;5.03;;
920;SDS011;447;51.332;6.778;2023-08-12T00:23:14;5.37;;;4.83;;
920;SDS011;447;51.332;6.778;2023-08-12T00:28:17;6.17;;;5.00;;
920;SDS011;447;51.332;6.778;2023-08-12T00:30:43;5.23;;;4.80;;
920;SDS011;447;51.332;6.778;2023-08-12T00:33:09;5.50;;;5.00;;
920;SDS011;447;51.332;6.778;2023-08-12T00:35:35;5.63;;;5.17;;
920;SDS011;447;51.332;6.778;2023-08-12T00:38:01;5.37;;;4.80;;
920;SDS011;447;51.332;6.778;2023-08-12T00:40:27;5.93;;;5.43;;
920;SDS011;447;51.332;6.778;2023-08-12T00:42:53;7.00;;;5.00;;
920;SDS011;447;51.332;6.778;2023-08-12T00:45:21;5.00;;;4.50;;
920;SDS011;447;51.332;6.778;2023-08-12T00:47:50;5.70;;;5.20;;
920;SDS011;447;51.332;6.778;2023-08-12T00:50:21;5.20;;;4.80;;
920;SDS011;447;51.332;6.778;2023-08-12T00:52:48;5.27;;;4.77;;
920;SDS011;447;51.332;6.778;2023-08-12T00:55:16;6.20;;;5.13;;
920;SDS011;447;51.332;6.778;2023-08-12T00:57:42;5.70;;;5.20;;
920;SDS011;447;51.332;6.778;2023-08-12T01:00:09;5.40;;;4.90;;
920;SDS011;447;51.332;6.778;2023-08-12T01:02:38;5.50;;;4.93;;
920;SDS011;447;51.332;6.778;2023-08-12T01:05:04;6.17;;;4.83;;
920;SDS011;447;51.332;6.778;2023-08-12T01:07:32;5.33;;;4.93;;
920;SDS011;447;51.332;6.778;2023-08-12T01:09:58;5.33;;;4.83;;
920;SDS011;447;51.332;6.778;2023-08-12T01:12:36;5.53;;;5.13;;
920;SDS011;447;51.332;6.778;2023-08-12T01:15:16;5.40;;;4.90;;
920;SDS011;447;51.332;6.778;2023-08-12T01:17:49;5.60;;;5.17;;
920;SDS011;447;51.332;6.778;2023-08-12T01:20:19;4.73;;;4.33;;
920;SDS011;447;51.332;6.778;2023-08-12T01:22:56;5.90;;;5.40;;
920;SDS011;447;51.332;6.778;2023-08-12T01:25:24;6.23;;;5.20;;
920;SDS011;447;51.332;6.778;2023-08-12T01:27:51;5.70;;;4.83;;
920;SDS011;447;51.332;6.778;2023-08-12T01:30:22;5.70;;;4.87;;
920;SDS011;447;51.332;6.778;2023-08-12T01:32:54;4.83;;;4.43;;
920;SDS011;447;51.332;6.778;2023-08-12T01:35:31;5.17;;;4.73;;
920;SDS011;447;51.332;6.778;2023-08-12T01:37:59;5.10;;;4.70;;
920;SDS011;447;51.332;6.778;2023-08-12T01:40:31;5.23;;;4.83;;
920;SDS011;447;51.332;6.778;2023-08-12T01:43:01;4.93;;;4.57;;
920;SDS011;447;51.332;6.778;2023-08-12T01:45:32;5.00;;;4.60;;
920;SDS011;447;51.332;6.778;2023-08-12T01:47:58;5.70;;;5.20;;
920;SDS011;447;51.332;6.778;2023-08-12T01:50:24;7.70;;;5.00;;
920;SDS011;447;51.332;6.778;2023-08-12T01:52:54;6.47;;;5.10;;
920;SDS011;447;51.332;6.778;2023-08-12T01:55:20;5.77;;;4.90;;
920;SDS011;447;51.332;6.778;2023-08-12T01:57:49;5.40;;;4.57;;
920;SDS011;447;51.332;6.778;2023-08-12T02:00:15;5.50;;;5.00;;
920;SDS011;447;51.332;6.778;2023-08-12T02:02:44;4.83;;;4.43;;
920;SDS011;447;51.332;6.778;2023-08-12T02:05:16;5.70;;;5.20;;
920;SDS011;447;51.332;6.778;2023-08-12T02:07:42;5.17;;;4.60;;
920;SDS011;447;51.332;6.778;2023-08-12T02:10:11;5.50;;;5.00;;
920;SDS011;447;51.332;6.778;2023-08-12T02:12:42;5.10;;;4.60;;
920;SDS011;447;51.332;6.778;2023-08-12T02:15:11;5.90;;;4.80;;
920;SDS011;447;51.332;6.778;2023-08-12T02:17:37;5.13;;;4.73;;
920;SDS011;447;51.332;6.778;2023-08-12T02:20:05;4.67;;;4.27;;
920;SDS011;447;51.332;6.778;2023-08-12T02:22:36;5.43;;;4.70;;
920;SDS011;447;51.332;6.778;2023-08-12T02:25:02;5.20;;;4.80;;
920;SDS011;447;51.332;6.778;2023-08-12T02:27:29;5.23;;;4.73;;
920;SDS011;447;51.332;6.778;2023-08-12T02:29:57;5.00;;;4.57;;
920;SDS011;447;51.332;6.778;2023-08-12T02:32:26;5.83;;;5.13;;
920;SDS011;447;51.332;6.778;2023-08-12T02:34:52;5.40;;;4.90;;
920;SDS011;447;51.332;6.778;2023-08-12T02:37:20;5.43;;;5.03;;
920;SDS011;447;51.332;6.778;2023-08-12T02:39:47;4.70;;;4.30;;
920;SDS011;447;51.332;6.778;2023-08-12T02:42:13;6.03;;;4.90;;
920;SDS011;447;51.332;6.778;2023-08-12T02:44:39;4.50;;;4.10;;
920;SDS011;447;51.332;6.778;2023-08-12T02:47:05;5.27;;;4.77;;
920;SDS011;447;51.332;6.778;2023-08-12T02:49:33;5.03;;;4.63;;
920;SDS011;447;51.332;6.778;2023-08-12T02:51:59;4.93;;;4.53;;
920;SDS011;447;51.332;6.778;2023-08-12T02:54:28;4.70;;;4.30;;
920;SDS011;447;51.332;6.778;2023-08-12T02:56:56;4.77;;;4.37;;
920;SDS011;447;51.332;6.778;2023-08-12T02:59:24;5.13;;;4.70;;
920;SDS011;447;51.332;6.778;2023-08-12T03:01:51;5.10;;;4.70;;
920;SDS011;447;51.332;6.778;2023-08-12T03:04:17;4.77;;;4.40;;
920;SDS011;447;51.332;6.778;2023-08-12T03:06:43;5.30;;;4.77;;
920;SDS011;447;51.332;6.778;2023-08-12T03:09:12;4.90;;;4.53;;
920;SDS011;447;51.332;6.778;2023-08-12T03:11:40;5.07;;;4.47;;
920;SDS011;447;51.332;6.778;2023-08-12T03:14:10;5.20;;;4.70;;
920;SDS011;447;51.332;6.778;2023-08-12T03:16:38;5.13;;;4.73;;
920;SDS011;447;51.332;6.778;2023-08-12T03:19:04;5.60;;;5.10;;
920;SDS011;447;51.332;6.778;2023-08-12T03:21:33;4.10;;;3.80;;
920;SDS011;447;51.332;6.778;2023-08-12T03:24:01;4.50;;;4.10;;
920;SDS011;447;51.332;6.778;2023-08-12T03:26:26;5.30;;;4.60;;
920;SDS011;447;51.332;6.778;2023-08-12T03:28:58;4.90;;;4.50;;
920;SDS011;447;51.332;6.778;2023-08-12T03:31:24;4.20;;;3.90;;
920;SDS011;447;51.332;6.778;2023-08-12T03:33:54;5.37;;;4.87;;
920;SDS011;447;51.332;6.778;2023-08-12T03:36:23;4.87;;;4.47;;
920;SDS011;447;51.332;6.778;2023-08-12T03:38:51;5.73;;;5.23;;
920;SDS011;447;51.332;6.778;2023-08-12T03:41:28;4.80;;;4.50;;
920;SDS011;447;51.332;6.778;2023-08-12T03:44:00;4.70;;;4.30;;
920;SDS011;447;51.332;6.778;2023-08-12T03:46:28;4.73;;;4.40;;
920;SDS011;447;51.332;6.778;2023-08-12T03:48:55;4.70;;;4.30;;
920;SDS011;447;51.332;6.778;2023-08-12T03:51:20;4.90;;;4.50;;
920;SDS011;447;51.332;6.778;2023-08-12T03:53:49;4.57;;;4.27;;
920;SDS011;447;51.332;6.778;2023-08-12T03:56:18;4.80;;;4.40;;
920;SDS011;447;51.332;6.778;2023-08-12T03:58:44;6.10;;;4.10;;
920;SDS011;447;51.332;6.778;2023-08-12T04:01:11;4.80;;;4.40;;
920;SDS011;447;51.332;6.778;2023-08-12T04:03:37;5.83;;;5.27;;
920;SDS011;447;51.332;6.778;2023-08-12T04:06:03;4.40;;;4.10;;
920;SDS011;447;51.332;6.778;2023-08-12T04:08:29;5.10;;;4.73;;
920;SDS011;447;51.332;6.778;2023-08-12T04:10:57;5.60;;;5.10;;
920;SDS011;447;51.332;6.778;2023-08-12T04:13:26;4.40;;;4.10;;
920;SDS011;447;51.332;6.778;2023-08-12T04:15:52;4.10;;;3.80;;
920;SDS011;447;51.332;6.778;2023-08-12T04:18:21;5.43;;;4.93;;
920;SDS011;447;51.332;6.778;2023-08-12T04:20:52;4.63;;;4.23;;
920;SDS011;447;51.332;6.778;2023-08-12T04:23:23;4.83;;;4.43;;
920;SDS011;447;51.332;6.778;2023-08-12T04:25:51;5.03;;;4.53;;
920;SDS011;447;51.332;6.778;2023-08-12T04:28:26;5.30;;;4.83;;
920;SDS011;447;51.332;6.778;2023-08-12T04:30:55;5.27;;;4.70;;
920;SDS011;447;51.332;6.778;2023-08-12T04:33:24;4.67;;;4.37;;
920;SDS011;447;51.332;6.778;2023-08-12T04:35:52;5.50;;;5.03;;
920;SDS011;447;51.332;6.778;2023-08-12T04:38:24;5.43;;;5.00;;
920;SDS011;447;51.332;6.778;2023-08-12T04:40:54;6.43;;;4.70;;
920;SDS011;447;51.332;6.778;2023-08-12T04:43:22;4.73;;;4.33;;
920;SDS011;447;51.332;6.778;2023-08-12T04:45:48;5.03;;;4.27;;
920;SDS011;447;51.332;6.778;2023-08-12T04:48:18;4.83;;;4.43;;
920;SDS011;447;51.332;6.778;2023-08-12T04:50:49;4.90;;;4.50;;
920;SDS011;447;51.332;6.778;2023-08-12T04:53:17;4.77;;;4.33;;
920;SDS011;447;51.332;6.778;2023-08-12T04:55:49;4.93;;;4.50;;
920;SDS011;447;51.332;6.778;2023-08-12T04:58:18;4.80;;;4.40;;
920;SDS011;447;51.332;6.778;2023-08-12T05:00:44;5.40;;;5.00;;
920;SDS011;447;51.332;6.778;2023-08-12T05:03:13;5.10;;;4.70;;
920;SDS011;447;51.332;6.778;2023-08-12T05:05:42;4.70;;;4.30;;
920;SDS011;447;51.332;6.778;2023-08-12T05:08:08;5.10;;;4.43;;
920;SDS011;447;51.332;6.778;2023-08-12T05:10:37;5.23;;;4.73;;
920;SDS011;447;51.332;6.778;2023-08-12T05:13:02;5.17;;;4.77;;
920;SDS011;447;51.332;6.778;2023-08-12T05:15:31;5.10;;;4.70;;
920;SDS011;447;51.332;6.778;2023-08-12T05:17:57;5.27;;;4.77;;
920;SDS011;447;51.332;6.778;2023-08-12T05:20:23;4.93;;;4.63;;
920;SDS011;447;51.332;6.778;2023-08-12T05:22:49;5.37;;;4.93;;
920;SDS011;447;51.332;6.778;2023-08-12T05:25:18;4.83;;;4.33;;
920;SDS011;447;51.332;6.778;2023-08-12T05:27:46;5.43;;;4.93;;
920;SDS011;447;51.332;6.778;2023-08-12T05:30:12;5.10;;;4.60;;
920;SDS011;447;51.332;6.778;2023-08-12T05:32:41;4.87;;;4.23;;
920;SDS011;447;51.332;6.778;2023-08-12T05:35:07;4.90;;;4.50;;
920;SDS011;447;51.332;6.778;2023-08-12T05:37:39;5.00;;;4.30;;
920;SDS011;447;51.332;6.778;2023-08-12T05:40:05;4.90;;;4.50;;
920;SDS011;447;51.332;6.778;2023-08-12T05:42:34;5.60;;;4.07;;
920;SDS011;447;51.332;6.778;2023-08-12T05:45:00;4.93;;;4.40;;
920;SDS011;447;51.332;6.778;2023-08-12T05:47:30;4.57;;;4.20;;
920;SDS011;447;51.332;6.778;2023-08-12T05:49:58;4.73;;;4.33;;
920;SDS011;447;51.332;6.778;2023-08-12T05:52:27;5.37;;;4.87;;
920;SDS011;447;51.332;6.778;2023-08-12T05:54:55;4.27;;;3.87;;
920;SDS011;447;51.332;6.778;2023-08-12T05:57:21;5.03;;;4.63;;
920;SDS011;447;51.332;6.778;2023-08-12T05:59:49;4.67;;;4.37;;
920;SDS011;447;51.332;6.778;2023-08-12T06:02:16;4.60;;;4.30;;
920;SDS011;447;51.332;6.778;2023-08-12T06:04:46;4.63;;;4.23;;
920;SDS011;447;51.332;6.778;2023-08-12T06:07:12;4.63;;;4.33;;
920;SDS011;447;51.332;6.778;2023-08-12T06:09:38;4.20;;;3.87;;
920;SDS011;447;51.332;6.778;2023-08-12T06:12:07;4.77;;;4.37;;
920;SDS011;447;51.332;6.778;2023-08-12T06:14:35;4.53;;;4.20;;
920;SDS011;447;51.332;6.778;2023-08-12T06:17:04;5.13;;;4.63;;
920;SDS011;447;51.332;6.778;2023-08-12T06:19:33;5.53;;;4.60;;
920;SDS011;447;51.332;6.778;2023-08-12T06:22:00;4.53;;;4.13;;
920;SDS011;447;51.332;6.778;2023-08-12T06:24:28;5.40;;;4.90;;
920;SDS011;447;51.332;6.778;2023-08-12T06:26:56;4.70;;;4.30;;
920;SDS011;447;51.332;6.778;2023-08-12T06:29:23;4.13;;;3.83;;
920;SDS011;447;51.332;6.778;2023-08-12T06:31:54;4.53;;;4.13;;
920;SDS011;447;51.332;6.778;2023-08-12T06:34:24;5.43;;;4.80;;
920;SDS011;447;51.332;6.778;2023-08-12T06:36:55;4.97;;;4.50;;
920;SDS011;447;51.332;6.778;2023-08-12T06:39:21;5.50;;;5.10;;
920;SDS011;447;51.332;6.778;2023-08-12T06:41:50;5.07;;;4.57;;
920;SDS011;447;51.332;6.778;2023-08-12T06:44:17;4.23;;;3.93;;
920;SDS011;447;51.332;6.778;2023-08-12T06:46:43;5.03;;;4.40;;
920;SDS011;447;51.332;6.778;2023-08-12T06:49:10;5.90;;;4.43;;
920;SDS011;447;51.332;6.778;2023-08-12T06:51:36;4.43;;;4.13;;
920;SDS011;447;51.332;6.778;2023-08-12T06:54:08;4.53;;;4.13;;
920;SDS011;447;51.332;6.778;2023-08-12T06:56:34;3.77;;;3.47;;
920;SDS011;447;51.332;6.778;2023-08-12T06:59:00;5.60;;;5.20;;
920;SDS011;447;51.332;6.778;2023-08-12T07:01:29;4.40;;;4.10;;
920;SDS011;447;51.332;6.778;2023-08-12T07:03:57;4.57;;;4.20;;
920;SDS011;447;51.332;6.778;2023-08-12T07:06:23;4.43;;;4.03;;
920;SDS011;447;51.332;6.778;2023-08-12T07:08:52;4.50;;;4.20;;
920;SDS011;447;51.332;6.778;2023-08-12T07:11:18;5.73;;;5.00;;
920;SDS011;447;51.332;6.778;2023-08-12T07:13:46;5.10;;;4.70;;
920;SDS011;447;51.332;6.778;2023-08-12T07:16:20;5.47;;;4.97;;
920;SDS011;447;51.332;6.778;2023-08-12T07:18:48;5.60;;;5.20;;
920;SDS011;447;51.332;6.778;2023-08-12T07:21:14;5.20;;;4.70;;
920;SDS011;447;51.332;6.778;2023-08-12T07:23:42;4.73;;;4.20;;
920;SDS011;447;51.332;6.778;2023-08-12T07:26:11;4.87;;;4.47;;
920;SDS011;447;51.332;6.778;2023-08-12T07:28:39;5.50;;;5.00;;
920;SDS011;447;51.332;6.778;2023-08-12T07:31:05;4.70;;;4.40;;
920;SDS011;447;51.332;6.778;2023-08-12T07:33:34;4.47;;;4.17;;
920;SDS011;447;51.332;6.778;2023-08-12T07:36:01;4.63;;;4.33;;
920;SDS011;447;51.332;6.778;2023-08-12T07:38:29;4.90;;;4.50;;
920;SDS011;447;51.332;6.778;2023-08-12T07:40:55;4.87;;;4.30;;
920;SDS011;447;51.332;6.778;2023-08-12T07:43:23;5.27;;;4.47;;
920;SDS011;447;51.332;6.778;2023-08-12T07:45:52;4.43;;;4.13;;
920;SDS011;447;51.332;6.778;2023-08-12T07:48:25;4.93;;;4.53;;
920;SDS011;447;51.332;6.778;2023-08-12T07:50:54;4.43;;;4.13;;
920;SDS011;447;51.332;6.778;2023-08-12T07:53:24;4.60;;;4.30;;
920;SDS011;447;51.332;6.778;2023-08-12T07:55:51;5.23;;;4.73;;
920;SDS011;447;51.332;6.778;2023-08-12T07:58:20;5.27;;;4.87;;
920;SDS011;447;51.332;6.778;2023-08-12T08:00:48;5.00;;;4.47;;
920;SDS011;447;51.332;6.778;2023-08-12T08:03:17;4.87;;;4.47;;
920;SDS011;447;51.332;6.778;2023-08-12T08:05:43;5.57;;;4.40;;
920;SDS011;447;51.332;6.778;2023-08-12T08:08:12;4.87;;;4.47;;
920;SDS011;447;51.332;6.778;2023-08-12T08:10:43;5.20;;;4.80;;
920;SDS011;447;51.332;6.778;2023-08-12T08:13:09;4.80;;;4.40;;
920;SDS011;447;51.332;6.778;2023-08-12T08:15:38;5.07;;;4.67;;
920;SDS011;447;51.332;6.778;2023-08-12T08:18:06;5.20;;;4.80;;
920;SDS011;447;51.332;6.778;2023-08-12T08:20:32;5.10;;;4.57;;
920;SDS011;447;51.332;6.778;2023-08-12T08:23:00;5.23;;;4.50;;
920;SDS011;447;51.332;6.778;2023-08-12T08:25:29;4.90;;;4.50;;
920;SDS011;447;51.332;6.778;2023-08-12T08:27:57;5.03;;;4.63;;
920;SDS011;447;51.332;6.778;2023-08-12T08:30:23;4.90;;;4.50;;
920;SDS011;447;51.332;6.778;2023-08-12T08:32:51;5.10;;;4.60;;
920;SDS011;447;51.332;6.778;2023-08-12T08:35:22;4.60;;;4.30;;
920;SDS011;447;51.332;6.778;2023-08-12T08:37:50;4.90;;;4.50;;
920;SDS011;447;51.332;6.778;2023-08-12T08:40:16;5.10;;;4.70;;
920;SDS011;447;51.332;6.778;2023-08-12T08:42:42;4.10;;;3.80;;
920;SDS011;447;51.332;6.778;2023-08-12T08:45:12;4.43;;;4.13;;
920;SDS011;447;51.332;6.778;2023-08-12T08:47:39;4.50;;;4.17;;
920;SDS011;447;51.332;6.778;2023-08-12T08:50:13;4.27;;;3.87;;
920;SDS011;447;51.332;6.778;2023-08-12T08:52:40;4.13;;;3.83;;
920;SDS011;447;51.332;6.778;2023-08-12T08:55:13;5.13;;;4.63;;
920;SDS011;447;51.332;6.778;2023-08-12T08:57:44;4.80;;;4.40;;
920;SDS011;447;51.332;6.778;2023-08-12T09:00:16;4.93;;;4.53;;
920;SDS011;447;51.332;6.778;2023-08-12T09:02:43;4.90;;;4.60;;
920;SDS011;447;51.332;6.778;2023-08-12T09:05:18;5.50;;;5.00;;
920;SDS011;447;51.332;6.778;2023-08-12T09:07:49;5.10;;;4.53;;
920;SDS011;447;51.332;6.778;2023-08-12T09:10:17;5.50;;;4.80;;
920;SDS011;447;51.332;6.778;2023-08-12T09:12:48;4.70;;;4.30;;
920;SDS011;447;51.332;6.778;2023-08-12T09:15:15;4.80;;;4.40;;
920;SDS011;447;51.332;6.778;2023-08-12T09:17:42;4.53;;;4.13;;
920;SDS011;447;51.332;6.778;2023-08-12T09:20:08;4.40;;;4.10;;
920;SDS011;447;51.332;6.778;2023-08-12T09:22:42;4.40;;;4.10;;
920;SDS011;447;51.332;6.778;2023-08-12T09:25:12;4.40;;;4.10;;
920;SDS011;447;51.332;6.778;2023-08-12T09:27:38;4.60;;;4.30;;
920;SDS011;447;51.332;6.778;2023-08-12T09:30:04;4.30;;;3.90;;
920;SDS011;447;51.332;6.778;2023-08-12T09:32:31;3.80;;;3.50;;
920;SDS011;447;51.332;6.778;2023-08-12T09:35:00;4.30;;;4.00;;
920;SDS011;447;51.332;6.778;2023-08-12T09:37:28;4.50;;;4.10;;
920;SDS011;447;51.332;6.778;2023-08-12T09:39:57;4.90;;;4.40;;
920;SDS011;447;51.332;6.778;2023-08-12T09:42:26;5.00;;;4.60;;
920;SDS011;447;51.332;6.778;2023-08-12T09:44:53;4.93;;;4.40;;
920;SDS011;447;51.332;6.778;2023-08-12T09:47:24;5.10;;;4.63;;
920;SDS011;447;51.332;6.778;2023-08-12T09:49:54;4.10;;;3.80;;
920;SDS011;447;51.332;6.778;2023-08-12T09:52:20;4.00;;;3.70;;
920;SDS011;447;51.332;6.778;2023-08-12T09:54:50;6.10;;;3.90;;
920;SDS011;447;51.332;6.778;2023-08-12T09:57:21;3.43;;;3.23;;
920;SDS011;447;51.332;6.778;2023-08-12T09:59:53;5.60;;;2.77;;
920;SDS011;447;51.332;6.778;2023-08-12T10:02:19;3.13;;;2.87;;
920;SDS011;447;51.332;6.778;2023-08-12T10:04:48;3.10;;;2.80;;
920;SDS011;447;51.332;6.778;2023-08-12T10:07:26;3.30;;;2.83;;
920;SDS011;447;51.332;6.778;2023-08-12T10:09:54;3.00;;;2.80;;
920;SDS011;447;51.332;6.778;2023-08-12T10:12:21;3.17;;;2.97;;
920;SDS011;447;51.332;6.778;2023-08-12T10:14:47;3.13;;;2.83;;
920;SDS011;447;51.332;6.778;2023-08-12T10:17:14;3.40;;;2.60;;
920;SDS011;447;51.332;6.778;2023-08-12T10:19:45;2.57;;;2.37;;
920;SDS011;447;51.332;6.778;2023-08-12T10:22:12;3.10;;;2.60;;
920;SDS011;447;51.332;6.778;2023-08-12T10:24:42;2.40;;;2.20;;
920;SDS011;447;51.332;6.778;2023-08-12T10:27:09;2.90;;;2.70;;
920;SDS011;447;51.332;6.778;2023-08-12T10:29:38;2.50;;;2.40;;
920;SDS011;447;51.332;6.778;2023-08-12T10:32:06;3.10;;;2.87;;
920;SDS011;447;51.332;6.778;2023-08-12T10:34:35;3.20;;;2.87;;
920;SDS011;447;51.332;6.778;2023-08-12T10:37:01;2.50;;;2.30;;
920;SDS011;447;51.332;6.778;2023-08-12T10:39:31;6.40;;;2.53;;
920;SDS011;447;51.332;6.778;2023-08-12T10:41:58;2.90;;;2.70;;
920;SDS011;447;51.332;6.778;2023-08-12T10:44:40;3.07;;;2.87;;
920;SDS011;447;51.332;6.778;2023-08-12T10:47:16;2.67;;;2.47;;
920;SDS011;447;51.332;6.778;2023-08-12T10:49:48;2.80;;;2.60;;
920;SDS011;447;51.332;6.778;2023-08-12T10:52:31;3.20;;;2.90;;
920;SDS011;447;51.332;6.778;2023-08-12T10:55:18;2.20;;;2.10;;
920;SDS011;447;51.332;6.778;2023-08-12T10:57:54;2.33;;;2.13;;
920;SDS011;447;51.332;6.778;2023-08-12T11:00:24;2.63;;;2.43;;
920;SDS011;447;51.332;6.778;2023-08-12T11:02:52;2.10;;;2.00;;
920;SDS011;447;51.332;6.778;2023-08-12T11:05:21;2.43;;;2.20;;
920;SDS011;447;51.332;6.778;2023-08-12T11:10:26;2.40;;;2.20;;
920;SDS011;447;51.332;6.778;2023-08-12T11:12:56;2.40;;;2.23;;
920;SDS011;447;51.332;6.778;2023-08-12T11:15:29;2.20;;;2.10;;
920;SDS011;447;51.332;6.778;2023-08-12T11:18:09;2.00;;;1.90;;
920;SDS011;447;51.332;6.778;2023-08-12T11:20:44;2.53;;;2.33;;
920;SDS011;447;51.332;6.778;2023-08-12T11:23:14;2.03;;;1.90;;
920;SDS011;447;51.332;6.778;2023-08-12T11:25:42;2.13;;;1.93;;
920;SDS011;447;51.332;6.778;2023-08-12T11:28:09;1.80;;;1.70;;
920;SDS011;447;51.332;6.778;2023-08-12T11:30:36;3.20;;;1.83;;
920;SDS011;447;51.332;6.778;2023-08-12T11:33:02;2.27;;;2.07;;
920;SDS011;447;51.332;6.778;2023-08-12T11:35:34;1.90;;;1.80;;
920;SDS011;447;51.332;6.778;2023-08-12T11:38:00;3.03;;;1.93;;
920;SDS011;447;51.332;6.778;2023-08-12T11:40:31;2.07;;;1.87;;
920;SDS011;447;51.332;6.778;2023-08-12T11:42:57;2.40;;;2.20;;
920;SDS011;447;51.332;6.778;2023-08-12T11:45:28;1.90;;;1.80;;
920;SDS011;447;51.332;6.778;2023-08-12T11:47:58;2.33;;;2.13;;
920;SDS011;447;51.332;6.778;2023-08-12T11:50:25;1.70;;;1.60;;
920;SDS011;447;51.332;6.778;2023-08-12T11:52:57;2.03;;;1.83;;
920;SDS011;447;51.332;6.778;2023-08-12T11:55:24;1.63;;;1.53;;
920;SDS011;447;51.332;6.778;2023-08-12T11:57:53;2.63;;;1.80;;
920;SDS011;447;51.332;6.778;2023-08-12T12:00:21;2.30;;;1.93;;
920;SDS011;447;51.332;6.778;2023-08-12T12:02:51;2.90;;;2.00;;
920;SDS011;447;51.332;6.778;2023-08-12T12:05:22;5.63;;;1.90;;
920;SDS011;447;51.332;6.778;2023-08-12T12:07:55;2.13;;;1.93;;
920;SDS011;447;51.332;6.778;2023-08-12T12:10:26;2.50;;;2.30;;
920;SDS011;447;51.332;6.778;2023-08-12T12:12:54;2.60;;;2.40;;
920;SDS011;447;51.332;6.778;2023-08-12T12:15:23;3.07;;;2.87;;
920;SDS011;447;51.332;6.778;2023-08-12T12:17:49;2.77;;;2.57;;
920;SDS011;447;51.332;6.778;2023-08-12T12:20:16;6.47;;;4.43;;
920;SDS011;447;51.332;6.778;2023-08-12T12:22:45;3.30;;;3.10;;
920;SDS011;447;51.332;6.778;2023-08-12T12:25:15;3.80;;;3.50;;
920;SDS011;447;51.332;6.778;2023-08-12T12:27:45;6.43;;;3.93;;
920;SDS011;447;51.332;6.778;2023-08-12T12:30:14;4.10;;;3.70;;
920;SDS011;447;51.332;6.778;2023-08-12T12:32:41;3.77;;;3.43;;
920;SDS011;447;51.332;6.778;2023-08-12T12:35:08;3.80;;;3.50;;
920;SDS011;447;51.332;6.778;2023-08-12T12:37:34;5.40;;;3.60;;
920;SDS011;447;51.332;6.778;2023-08-12T12:40:05;6.00;;;3.40;;
920;SDS011;447;51.332;6.778;2023-08-12T12:42:34;4.00;;;3.60;;
920;SDS011;447;51.332;6.778;2023-08-12T12:45:00;4.20;;;3.80;;
920;SDS011;447;51.332;6.778;2023-08-12T12:47:29;3.87;;;3.57;;
920;SDS011;447;51.332;6.778;2023-08-12T12:49:55;3.90;;;3.60;;
920;SDS011;447;51.332;6.778;2023-08-12T12:52:21;3.40;;;3.10;;
920;SDS011;447;51.332;6.778;2023-08-12T12:54:49;4.10;;;3.80;;
920;SDS011;447;51.332;6.778;2023-08-12T12:57:16;3.40;;;3.10;;
920;SDS011;447;51.332;6.778;2023-08-12T12:59:44;4.10;;;3.80;;
920;SDS011;447;51.332;6.778;2023-08-12T13:02:10;3.73;;;3.43;;
920;SDS011;447;51.332;6.778;2023-08-12T13:04:36;3.87;;;3.60;;
920;SDS011;447;51.332;6.778;2023-08-12T13:07:02;3.60;;;3.40;;
920;SDS011;447;51.332;6.778;2023-08-12T13:09:28;4.00;;;3.70;;
920;SDS011;447;51.332;6.778;2023-08-12T13:11:54;4.07;;;3.70;;
920;SDS011;447;51.332;6.778;2023-08-12T13:14:22;4.90;;;4.50;;
920;SDS011;447;51.332;6.778;2023-08-12T13:16:49;4.40;;;4.10;;
920;SDS011;447;51.332;6.778;2023-08-12T13:19:15;5.10;;;4.70;;
920;SDS011;447;51.332;6.778;2023-08-12T13:21:41;5.73;;;5.07;;
920;SDS011;447;51.332;6.778;2023-08-12T13:24:07;5.80;;;5.40;;
920;SDS011;447;51.332;6.778;2023-08-12T13:26:35;6.70;;;5.43;;
920;SDS011;447;51.332;6.778;2023-08-12T13:29:03;6.90;;;6.30;;
920;SDS011;447;51.332;6.778;2023-08-12T13:31:34;6.93;;;6.27;;
920;SDS011;447;51.332;6.778;2023-08-12T13:34:03;5.93;;;5.43;;
920;SDS011;447;51.332;6.778;2023-08-12T13:36:31;7.23;;;6.53;;
920;SDS011;447;51.332;6.778;2023-08-12T13:38:59;6.17;;;5.70;;
920;SDS011;447;51.332;6.778;2023-08-12T13:41:25;5.47;;;5.07;;
920;SDS011;447;51.332;6.778;2023-08-12T13:43:54;5.83;;;5.13;;
920;SDS011;447;51.332;6.778;2023-08-12T13:46:20;5.97;;;5.57;;
920;SDS011;447;51.332;6.778;2023-08-12T13:48:49;4.73;;;4.40;;
920;SDS011;447;51.332;6.778;2023-08-12T13:51:17;4.70;;;4.30;;
920;SDS011;447;51.332;6.778;2023-08-12T13:53:43;4.00;;;3.70;;
920;SDS011;447;51.332;6.778;2023-08-12T13:56:11;4.10;;;3.80;;
920;SDS011;447;51.332;6.778;2023-08-12T13:58:40;5.27;;;4.70;;
920;SDS011;447;51.332;6.778;2023-08-12T14:01:06;6.37;;;4.60;;
920;SDS011;447;51.332;6.778;2023-08-12T14:03:35;5.07;;;4.60;;
920;SDS011;447;51.332;6.778;2023-08-12T14:06:02;4.67;;;4.27;;
920;SDS011;447;51.332;6.778;2023-08-12T14:08:28;4.87;;;4.43;;
920;SDS011;447;51.332;6.778;2023-08-12T14:10:57;3.50;;;3.30;;
920;SDS011;447;51.332;6.778;2023-08-12T14:13:23;4.60;;;4.30;;
920;SDS011;447;51.332;6.778;2023-08-12T14:15:49;7.50;;;6.90;;
920;SDS011;447;51.332;6.778;2023-08-12T14:18:17;7.30;;;6.73;;
920;SDS011;447;51.332;6.778;2023-08-12T14:20:48;7.70;;;7.00;;
920;SDS011;447;51.332;6.778;2023-08-12T14:23:14;7.53;;;6.93;;
920;SDS011;447;51.332;6.778;2023-08-12T14:25:42;7.40;;;6.80;;
920;SDS011;447;51.332;6.778;2023-08-12T14:28:11;7.20;;;6.50;;
920;SDS011;447;51.332;6.778;2023-08-12T14:30:37;7.73;;;7.13;;
920;SDS011;447;51.332;6.778;2023-08-12T14:33:03;8.20;;;7.40;;
920;SDS011;447;51.332;6.778;2023-08-12T14:35:33;6.47;;;5.90;;
920;SDS011;447;51.332;6.778;2023-08-12T14:37:59;6.50;;;6.10;;
920;SDS011;447;51.332;6.778;2023-08-12T14:40:28;6.03;;;5.63;;
920;SDS011;447;51.332;6.778;2023-08-12T14:42:54;6.93;;;6.30;;
920;SDS011;447;51.332;6.778;2023-08-12T14:45:20;11.73;;;7.03;;
920;SDS011;447;51.332;6.778;2023-08-12T14:47:46;6.90;;;6.50;;
920;SDS011;447;51.332;6.778;2023-08-12T14:50:14;6.57;;;6.10;;
920;SDS011;447;51.332;6.778;2023-08-12T14:52:42;6.80;;;5.53;;
920;SDS011;447;51.332;6.778;2023-08-12T14:55:08;24.87;;;7.17;;
920;SDS011;447;51.332;6.778;2023-08-12T14:57:34;7.37;;;5.37;;
920;SDS011;447;51.332;6.778;2023-08-12T15:00:03;80.43;;;12.63;;
920;SDS011;447;51.332;6.778;2023-08-12T15:02:32;11.87;;;6.27;;
920;SDS011;447;51.332;6.778;2023-08-12T15:04:59;6.70;;;5.10;;
920;SDS011;447;51.332;6.778;2023-08-12T15:07:27;7.30;;;5.10;;
920;SDS011;447;51.332;6.778;2023-08-12T15:09:53;6.30;;;5.70;;
920;SDS011;447;51.332;6.778;2023-08-12T15:12:20;6.20;;;4.70;;
920;SDS011;447;51.332;6.778;2023-08-12T15:14:46;6.40;;;5.80;;
920;SDS011;447;51.332;6.778;2023-08-12T15:17:14;6.00;;;5.40;;
920;SDS011;447;51.332;6.778;2023-08-12T15:19:40;6.37;;;5.60;;
920;SDS011;447;51.332;6.778;2023-08-12T15:22:09;5.83;;;5.33;;
920;SDS011;447;51.332;6.778;2023-08-12T15:24:35;9.20;;;5.50;;
920;SDS011;447;51.332;6.778;2023-08-12T15:27:01;7.50;;;5.60;;
920;SDS011;447;51.332;6.778;2023-08-12T15:29:28;12.43;;;6.47;;
920;SDS011;447;51.332;6.778;2023-08-12T15:31:54;4.60;;;4.20;;
920;SDS011;447;51.332;6.778;2023-08-12T15:34:21;7.07;;;4.40;;
920;SDS011;447;51.332;6.778;2023-08-12T15:36:47;6.23;;;5.00;;
920;SDS011;447;51.332;6.778;2023-08-12T15:39:13;6.63;;;4.80;;
920;SDS011;447;51.332;6.778;2023-08-12T15:41:43;5.50;;;5.10;;
920;SDS011;447;51.332;6.778;2023-08-12T15:44:10;5.50;;;5.07;;
920;SDS011;447;51.332;6.778;2023-08-12T15:46:39;6.63;;;4.40;;
920;SDS011;447;51.332;6.778;2023-08-12T15:49:07;5.90;;;3.90;;
920;SDS011;447;51.332;6.778;2023-08-12T15:51:36;6.70;;;4.30;;
920;SDS011;447;51.332;6.778;2023-08-12T15:54:05;3.90;;;3.03;;
920;SDS011;447;51.332;6.778;2023-08-12T15:56:32;4.83;;;3.50;;